Time;durP1;ratioP1;P1;durP2;ratioP2;P2;SDS_P1;SDS_P2;PMS_P1;PMS_P2;Temp;Humidity;BMP_temperature;BMP_pressure;BME280_temperature;BME280_humidity;BME280_pressure;Samples;Min_cycle;Max_cycle;Signal;HPM_P1;HPM_P2
2022/01/20 00:01:49;;;;;;;19.33;4.07;;;2.80;99.90;;;;;;4992134;28;20046;-87
2022/01/20 00:04:27;;;;;;;23.52;2.25;;;2.70;99.90;;;;;;5009004;28;20052;-85
2022/01/20 00:09:55;;;;;;;24.20;4.35;;;2.90;99.90;;;;;;5008922;28;20060;-86
2022/01/20 00:26:04;;;;;;;12.15;2.40;;;3.50;99.90;;;;;;5014023;28;20058;-86
2022/01/20 00:28:49;;;;;;;24.63;4.07;;;3.90;99.90;;;;;;5013438;28;20057;-87
2022/01/20 00:33:50;;;;;;;9.95;1.90;;;3.30;99.90;;;;;;5014358;28;20057;-87
2022/01/20 00:38:42;;;;;;;15.05;2.72;;;3.20;99.90;;;;;;5013964;28;20054;-86
2022/01/20 00:41:14;;;;;;;16.88;3.22;;;3.20;99.90;;;;;;4995989;28;20400;-85
2022/01/20 00:43:44;;;;;;;16.48;2.65;;;3.10;99.90;;;;;;5010244;28;20077;-84
2022/01/20 00:46:10;;;;;;;23.67;3.40;;;3.10;99.90;;;;;;5011219;28;20061;-85
2022/01/20 00:48:39;;;;;;;17.50;2.53;;;3.00;99.90;;;;;;5015588;28;20489;-84
2022/01/20 00:51:05;;;;;;;15.05;2.45;;;3.00;99.90;;;;;;4996705;28;20709;-85
2022/01/20 00:53:30;;;;;;;18.75;2.60;;;3.10;99.90;;;;;;5012680;28;20711;-85
2022/01/20 00:55:59;;;;;;;12.85;2.33;;;3.10;99.90;;;;;;5013361;28;20050;-85
2022/01/20 00:58:24;;;;;;;14.05;3.90;;;3.10;99.90;;;;;;5011893;28;20476;-85
2022/01/20 01:00:50;;;;;;;22.33;2.67;;;3.20;99.90;;;;;;5019042;28;20054;-86
2022/01/20 01:03:21;;;;;;;12.45;2.75;;;3.30;99.90;;;;;;5024934;28;20100;-86
2022/01/20 01:08:35;;;;;;;21.75;4.65;;;3.30;99.90;;;;;;5003823;28;20057;-87
2022/01/20 01:11:04;;;;;;;13.55;3.05;;;3.30;99.90;;;;;;5009815;28;20061;-86
2022/01/20 01:13:30;;;;;;;20.33;2.45;;;3.30;99.90;;;;;;5010700;28;20230;-88
2022/01/20 01:15:59;;;;;;;19.88;4.18;;;3.30;99.90;;;;;;5011351;28;20555;-85
2022/01/20 01:21:27;;;;;;;17.80;2.40;;;4.10;99.90;;;;;;5011154;28;20246;-86
2022/01/20 01:23:53;;;;;;;24.08;3.40;;;3.70;99.90;;;;;;5013150;28;20955;-86
2022/01/20 01:26:21;;;;;;;18.90;3.80;;;4.00;99.90;;;;;;5013372;28;20096;-86
2022/01/20 01:28:47;;;;;;;17.95;2.67;;;3.80;99.90;;;;;;5011207;28;20049;-86
2022/01/20 01:33:57;;;;;;;9.90;2.33;;;4.20;99.90;;;;;;5012645;28;20155;-86
2022/01/20 01:36:25;;;;;;;20.30;2.03;;;3.70;99.90;;;;;;4994915;28;20041;-86
2022/01/20 01:38:51;;;;;;;14.60;2.50;;;3.60;99.90;;;;;;5011733;28;20062;-85
2022/01/20 01:41:32;;;;;;;23.77;2.10;;;3.40;99.90;;;;;;5011869;28;20045;-85
2022/01/20 01:44:06;;;;;;;10.38;3.05;;;3.80;99.90;;;;;;5012801;28;20120;-87
2022/01/20 01:46:32;;;;;;;14.48;1.67;;;2.90;99.90;;;;;;5014055;28;20057;-86
2022/01/20 01:48:58;;;;;;;19.83;3.50;;;2.90;99.90;;;;;;5013131;28;20081;-86
2022/01/20 01:51:27;;;;;;;8.32;1.80;;;2.80;99.90;;;;;;4996002;28;20530;-86
2022/01/20 01:53:52;;;;;;;12.70;2.72;;;2.70;99.90;;;;;;5011851;28;20050;-85
2022/01/20 01:56:19;;;;;;;8.35;1.80;;;2.80;99.90;;;;;;4992844;28;20050;-86
2022/01/20 01:58:45;;;;;;;12.75;1.33;;;2.80;99.90;;;;;;4992594;28;20410;-86
2022/01/20 02:01:10;;;;;;;14.57;1.98;;;2.90;99.90;;;;;;4976536;28;20119;-86
2022/01/20 02:03:44;;;;;;;7.82;1.63;;;2.80;99.90;;;;;;4992819;28;20057;-85
2022/01/20 02:19:32;;;;;;;11.10;2.17;;;3.30;99.90;;;;;;4992735;28;20105;-88
2022/01/20 02:22:02;;;;;;;20.13;3.67;;;4.00;99.90;;;;;;4991700;28;20050;-87
2022/01/20 02:24:31;;;;;;;16.13;2.50;;;3.50;99.90;;;;;;4974614;28;20064;-87
2022/01/20 02:26:58;;;;;;;22.65;1.90;;;3.50;99.90;;;;;;4992115;28;20089;-88
2022/01/20 02:29:27;;;;;;;16.88;2.67;;;3.50;99.90;;;;;;4991198;28;20050;-88
2022/01/20 02:31:55;;;;;;;18.30;3.40;;;3.40;99.90;;;;;;4990815;28;20092;-88
2022/01/20 02:34:22;;;;;;;16.70;2.00;;;3.50;99.90;;;;;;4990838;28;20050;-88
2022/01/20 02:36:48;;;;;;;15.65;2.30;;;3.60;99.90;;;;;;4990291;28;20046;-88
2022/01/20 02:44:57;;;;;;;23.08;2.95;;;3.30;99.90;;;;;;4994698;28;20436;-87
2022/01/20 02:47:26;;;;;;;18.92;3.20;;;3.20;99.90;;;;;;4996737;28;20046;-88
2022/01/20 02:49:53;;;;;;;19.10;3.08;;;2.90;99.90;;;;;;4991425;28;20104;-88
2022/01/20 02:52:19;;;;;;;17.15;3.75;;;2.80;99.90;;;;;;4991643;28;20117;-88
2022/01/20 02:54:45;;;;;;;12.68;3.78;;;2.80;99.90;;;;;;4994840;28;20553;-88
2022/01/20 02:57:11;;;;;;;22.75;3.28;;;2.70;99.90;;;;;;4991582;28;20114;-88
2022/01/20 02:59:38;;;;;;;18.42;3.08;;;2.70;99.90;;;;;;4992141;28;20137;-88
2022/01/20 03:02:09;;;;;;;18.27;3.13;;;2.80;99.90;;;;;;4994482;28;20046;-88
2022/01/20 03:04:37;;;;;;;25.40;3.55;;;2.90;99.90;;;;;;4993668;28;20050;-88
2022/01/20 03:07:04;;;;;;;25.73;4.20;;;2.90;99.90;;;;;;4993001;28;20050;-88
2022/01/20 03:09:30;;;;;;;17.98;3.78;;;2.70;99.90;;;;;;4991449;28;20109;-89
2022/01/20 03:11:57;;;;;;;23.30;5.30;;;4.20;99.90;;;;;;4991446;28;20485;-87
2022/01/20 03:14:23;;;;;;;21.48;5.35;;;3.00;99.90;;;;;;4989661;28;20516;-88
2022/01/20 03:16:49;;;;;;;24.17;3.80;;;3.00;99.90;;;;;;4989759;28;20458;-88
2022/01/20 03:19:19;;;;;;;18.45;3.55;;;3.20;99.90;;;;;;4975388;28;20053;-88
2022/01/20 03:21:45;;;;;;;17.80;2.58;;;3.40;99.90;;;;;;4974425;28;20113;-88
2022/01/20 03:24:11;;;;;;;19.60;3.00;;;3.40;99.90;;;;;;4973419;28;20221;-87
2022/01/20 03:26:40;;;;;;;20.25;4.20;;;3.60;99.90;;;;;;4991853;28;20526;-88
2022/01/20 03:29:06;;;;;;;25.48;5.15;;;3.80;99.90;;;;;;4991593;28;20567;-87
2022/01/20 03:31:36;;;;;;;25.13;3.88;;;3.40;99.90;;;;;;4994441;28;20039;-88
2022/01/20 03:34:02;;;;;;;19.17;4.40;;;3.40;99.90;;;;;;5012519;28;20108;-88
2022/01/20 03:36:27;;;;;;;19.08;3.97;;;3.50;99.90;;;;;;5011160;28;20049;-87
2022/01/20 03:38:56;;;;;;;22.95;3.60;;;3.40;99.90;;;;;;5010591;28;20072;-88
2022/01/20 03:41:21;;;;;;;27.70;5.38;;;3.30;99.90;;;;;;5008106;28;20167;-88
2022/01/20 03:43:48;;;;;;;21.60;5.38;;;3.20;99.90;;;;;;5008961;28;20110;-87
2022/01/20 03:46:17;;;;;;;28.77;6.90;;;3.10;99.90;;;;;;5007981;28;20077;-87
2022/01/20 03:48:53;;;;;;;22.65;4.13;;;3.20;99.90;;;;;;4991937;28;20056;-87
2022/01/20 03:51:21;;;;;;;33.28;6.40;;;3.10;99.90;;;;;;5007516;28;20084;-87
2022/01/20 03:53:54;;;;;;;20.90;4.38;;;3.10;99.90;;;;;;5008439;28;20041;-86
2022/01/20 03:56:24;;;;;;;24.33;4.78;;;3.20;99.90;;;;;;5008995;28;20064;-87
2022/01/20 03:58:51;;;;;;;15.07;3.78;;;3.20;99.90;;;;;;5008012;28;20065;-86
2022/01/20 04:01:20;;;;;;;17.35;3.58;;;3.20;99.90;;;;;;5009585;28;20046;-87
2022/01/20 04:03:46;;;;;;;16.48;3.35;;;3.30;99.90;;;;;;4992795;28;20042;-87
2022/01/20 04:06:12;;;;;;;15.02;2.03;;;3.60;99.90;;;;;;4989167;28;20500;-86
2022/01/20 04:08:42;;;;;;;12.48;2.70;;;3.30;99.90;;;;;;4989889;28;20064;-87
2022/01/20 04:11:16;;;;;;;15.60;3.38;;;3.20;99.90;;;;;;4990184;28;20056;-87
2022/01/20 04:13:45;;;;;;;13.43;2.78;;;3.00;99.90;;;;;;4974290;28;20160;-87
2022/01/20 04:16:33;;;;;;;12.55;2.50;;;2.80;99.90;;;;;;4991205;28;20516;-86
2022/01/20 04:19:00;;;;;;;16.40;2.40;;;3.00;99.90;;;;;;4991250;28;20133;-86
2022/01/20 04:21:28;;;;;;;17.67;2.75;;;3.30;99.90;;;;;;4992060;28;20042;-86
2022/01/20 04:23:55;;;;;;;21.23;3.83;;;2.60;99.90;;;;;;4989428;28;20046;-86
2022/01/20 04:26:22;;;;;;;13.15;3.50;;;2.60;99.90;;;;;;4989535;28;20469;-86
2022/01/20 04:28:48;;;;;;;10.45;1.90;;;2.80;99.90;;;;;;4991448;28;20038;-87
2022/01/20 04:31:14;;;;;;;22.13;3.60;;;3.00;99.90;;;;;;4990171;28;20046;-86
2022/01/20 04:33:40;;;;;;;11.20;3.17;;;2.80;99.90;;;;;;4990918;28;20604;-86
2022/01/20 04:36:07;;;;;;;8.05;2.10;;;2.90;99.90;;;;;;4989318;28;20113;-86
2022/01/20 04:38:33;;;;;;;11.32;1.95;;;3.00;99.90;;;;;;4990776;28;20054;-87
2022/01/20 04:40:58;;;;;;;12.77;1.80;;;2.80;99.90;;;;;;4990637;28;20058;-86
2022/01/20 04:43:25;;;;;;;17.65;2.13;;;2.70;99.90;;;;;;4990678;28;20046;-86
2022/01/20 04:59:10;;;;;;;17.33;2.50;;;3.10;99.90;;;;;;4988583;28;20054;-86
2022/01/20 05:01:36;;;;;;;13.90;3.20;;;2.90;99.90;;;;;;4991023;28;20481;-86
2022/01/20 05:04:03;;;;;;;19.00;3.25;;;2.80;99.90;;;;;;4991323;28;20046;-86
2022/01/20 05:06:29;;;;;;;11.93;2.22;;;2.80;99.90;;;;;;4989544;28;20571;-86
2022/01/20 05:08:54;;;;;;;18.35;2.90;;;2.90;99.90;;;;;;4990715;28;20046;-86
2022/01/20 05:11:20;;;;;;;11.15;2.63;;;2.80;99.90;;;;;;4993111;28;20121;-86
2022/01/20 05:13:49;;;;;;;15.05;2.28;;;2.90;99.90;;;;;;4991808;28;20050;-86
2022/01/20 05:16:15;;;;;;;17.20;3.03;;;3.70;99.90;;;;;;4994300;28;20090;-86
2022/01/20 05:18:41;;;;;;;17.58;3.47;;;2.70;99.90;;;;;;4993821;28;20047;-86
2022/01/20 05:21:07;;;;;;;13.15;2.70;;;2.80;99.90;;;;;;4993994;28;20413;-86
2022/01/20 05:23:33;;;;;;;10.38;2.38;;;2.80;99.90;;;;;;4993876;28;20038;-86
2022/01/20 05:26:01;;;;;;;18.55;2.83;;;2.80;99.90;;;;;;4993782;28;20074;-87
2022/01/20 05:28:27;;;;;;;8.35;1.58;;;2.80;99.90;;;;;;4993516;28;20050;-85
2022/01/20 05:30:53;;;;;;;9.57;1.63;;;2.80;99.90;;;;;;4978965;28;20105;-86
2022/01/20 05:33:21;;;;;;;8.95;2.13;;;2.60;99.90;;;;;;5002216;28;20423;-86
2022/01/20 05:35:47;;;;;;;13.63;1.73;;;2.50;99.90;;;;;;5001664;28;20050;-85
2022/01/20 05:38:13;;;;;;;11.70;2.13;;;2.40;99.90;;;;;;5007011;28;20054;-87
2022/01/20 05:40:39;;;;;;;10.23;1.63;;;2.30;99.90;;;;;;5003315;28;20057;-86
2022/01/20 05:43:04;;;;;;;21.08;1.75;;;2.20;99.90;;;;;;4998918;28;20048;-87
2022/01/20 05:45:30;;;;;;;9.93;1.60;;;2.10;99.90;;;;;;5014861;28;20049;-87
2022/01/20 05:48:10;;;;;;;8.65;1.35;;;2.00;99.90;;;;;;5013887;28;20046;-86
2022/01/20 05:50:37;;;;;;;11.23;1.48;;;1.80;99.90;;;;;;5014348;28;20069;-86
2022/01/20 05:53:04;;;;;;;22.83;2.03;;;1.70;99.90;;;;;;5014495;28;20076;-85
2022/01/20 05:55:34;;;;;;;11.88;1.98;;;1.70;99.90;;;;;;5014025;28;20057;-86
2022/01/20 05:58:00;;;;;;;12.48;2.63;;;1.50;99.90;;;;;;4996129;28;20061;-87
2022/01/20 06:00:28;;;;;;;17.20;2.53;;;1.50;99.90;;;;;;5013762;28;20389;-86
2022/01/20 06:05:40;;;;;;;13.25;3.00;;;1.70;99.90;;;;;;5012945;28;20054;-86
2022/01/20 06:08:06;;;;;;;14.20;2.20;;;1.90;99.90;;;;;;5014706;28;20099;-85
2022/01/20 06:10:35;;;;;;;22.15;3.42;;;1.80;99.90;;;;;;4996019;28;20108;-86
2022/01/20 06:13:02;;;;;;;17.02;3.80;;;1.90;99.90;;;;;;5012527;28;20056;-86
2022/01/20 06:15:28;;;;;;;13.80;4.07;;;2.10;99.90;;;;;;5012542;28;20046;-86
2022/01/20 06:18:04;;;;;;;17.83;3.25;;;2.60;99.90;;;;;;5012228;28;20527;-86
2022/01/20 06:20:30;;;;;;;22.08;3.75;;;3.10;99.90;;;;;;4997291;28;20100;-87
2022/01/20 06:22:56;;;;;;;25.25;5.35;;;2.50;99.90;;;;;;5010220;28;20042;-84
2022/01/20 06:25:23;;;;;;;20.65;3.35;;;2.50;99.90;;;;;;5012792;28;20465;-85
2022/01/20 06:27:49;;;;;;;25.63;4.50;;;2.40;99.90;;;;;;5010857;28;20050;-85
2022/01/20 06:30:18;;;;;;;20.30;3.33;;;2.50;99.90;;;;;;5014603;28;20069;-86
2022/01/20 06:32:46;;;;;;;19.08;4.15;;;2.50;99.90;;;;;;5006470;28;20046;-86
2022/01/20 06:35:12;;;;;;;18.88;3.17;;;2.50;99.90;;;;;;5019543;28;20084;-86
2022/01/20 06:37:38;;;;;;;20.60;2.63;;;2.70;99.90;;;;;;5019094;28;20064;-85
2022/01/20 06:40:05;;;;;;;20.67;3.28;;;2.80;99.90;;;;;;5018142;28;20213;-87
2022/01/20 06:42:30;;;;;;;28.92;4.53;;;2.90;99.90;;;;;;5012507;28;20058;-85
2022/01/20 06:44:56;;;;;;;19.58;3.85;;;3.00;99.90;;;;;;5012549;28;20057;-86
2022/01/20 06:47:22;;;;;;;9.43;2.38;;;3.00;99.90;;;;;;5011985;28;20050;-85
2022/01/20 06:49:47;;;;;;;15.77;2.75;;;2.40;99.90;;;;;;5013382;28;20050;-86
2022/01/20 06:52:13;;;;;;;11.18;2.42;;;1.90;99.90;;;;;;5012151;28;20085;-86
2022/01/20 06:54:38;;;;;;;13.07;2.95;;;1.70;99.90;;;;;;5011640;28;20046;-86
2022/01/20 06:57:04;;;;;;;9.30;2.10;;;1.60;99.90;;;;;;5015589;28;20136;-87
2022/01/20 06:59:31;;;;;;;15.50;2.92;;;1.60;99.90;;;;;;5013247;28;20485;-87
2022/01/20 07:01:56;;;;;;;26.45;4.50;;;1.40;99.90;;;;;;5011174;28;20058;-86
2022/01/20 07:04:23;;;;;;;16.40;2.72;;;2.40;99.90;;;;;;5012341;28;20034;-87
2022/01/20 07:06:49;;;;;;;17.50;3.78;;;1.20;99.90;;;;;;5011406;28;20548;-86
2022/01/20 07:09:14;;;;;;;14.82;3.03;;;1.10;99.90;;;;;;5012585;28;20069;-87
2022/01/20 07:11:41;;;;;;;11.55;2.67;;;1.10;99.90;;;;;;5013313;28;20417;-87
2022/01/20 07:14:08;;;;;;;17.08;2.63;;;1.10;99.90;;;;;;4996903;28;20506;-87
2022/01/20 07:16:34;;;;;;;15.02;2.55;;;0.90;99.90;;;;;;5013515;28;20046;-87
2022/01/20 07:19:00;;;;;;;22.50;3.83;;;1.00;99.90;;;;;;5010686;28;20046;-87
2022/01/20 07:21:29;;;;;;;14.00;2.70;;;1.10;99.90;;;;;;5012522;28;20132;-86
2022/01/20 07:23:55;;;;;;;23.88;4.40;;;1.00;99.90;;;;;;5010409;28;20049;-86
2022/01/20 07:26:21;;;;;;;23.27;3.60;;;1.20;99.90;;;;;;5010923;28;20097;-87
2022/01/20 07:28:46;;;;;;;12.90;2.42;;;1.20;99.90;;;;;;5012429;28;20046;-86
2022/01/20 07:31:12;;;;;;;15.15;3.22;;;1.40;99.90;;;;;;5011439;28;20049;-86
2022/01/20 07:33:38;;;;;;;11.20;2.33;;;1.60;99.90;;;;;;5005459;28;20451;-86
2022/01/20 07:36:04;;;;;;;16.75;2.75;;;1.70;99.90;;;;;;5004350;28;20057;-86
2022/01/20 07:38:32;;;;;;;17.02;3.05;;;1.80;99.90;;;;;;5006302;28;20404;-86
2022/01/20 07:40:58;;;;;;;11.57;3.13;;;1.80;99.90;;;;;;5005521;28;20567;-86
2022/01/20 07:43:23;;;;;;;12.70;3.05;;;1.80;99.90;;;;;;5008075;28;20057;-86
2022/01/20 07:45:49;;;;;;;17.90;2.70;;;1.70;99.90;;;;;;5007381;28;20053;-86
2022/01/20 07:48:15;;;;;;;11.00;1.95;;;1.90;99.90;;;;;;5005407;28;20061;-86
2022/01/20 07:50:41;;;;;;;11.60;2.55;;;1.70;99.90;;;;;;5005544;28;20049;-86
2022/01/20 07:53:06;;;;;;;12.55;3.30;;;1.60;99.90;;;;;;5006020;28;20609;-86
2022/01/20 07:55:32;;;;;;;9.10;2.20;;;1.70;99.90;;;;;;5004826;28;20072;-85
2022/01/20 07:57:58;;;;;;;10.38;2.90;;;2.30;99.90;;;;;;5005462;28;20060;-85
2022/01/20 08:00:24;;;;;;;9.65;2.22;;;2.80;99.90;;;;;;5005969;28;20065;-86
2022/01/20 08:02:50;;;;;;;27.40;3.53;;;2.20;99.90;;;;;;5005949;28;20058;-85
2022/01/20 08:05:16;;;;;;;15.75;1.83;;;2.20;99.90;;;;;;5006405;28;20049;-85
2022/01/20 08:07:42;;;;;;;12.48;2.47;;;2.00;99.90;;;;;;5005607;28;20472;-86
2022/01/20 08:10:11;;;;;;;9.77;2.60;;;1.90;99.90;;;;;;4984552;28;20165;-86
2022/01/20 08:12:37;;;;;;;12.50;1.90;;;1.80;99.90;;;;;;4993880;28;20133;-86
2022/01/20 08:15:09;;;;;;;14.73;3.08;;;1.60;99.90;;;;;;5000218;28;20513;-86
2022/01/20 08:17:36;;;;;;;14.10;1.80;;;1.60;99.90;;;;;;4969854;28;20123;-86
2022/01/20 08:20:03;;;;;;;10.27;2.80;;;1.50;99.90;;;;;;4984603;28;20064;-86
2022/01/20 08:22:33;;;;;;;11.35;2.08;;;1.60;99.90;;;;;;4984357;28;20074;-85
2022/01/20 08:25:00;;;;;;;20.88;2.65;;;1.70;99.90;;;;;;4976552;28;20042;-85
2022/01/20 08:27:25;;;;;;;21.65;4.95;;;1.70;99.90;;;;;;4990613;28;20177;-86
2022/01/20 08:29:51;;;;;;;17.50;2.75;;;1.70;99.90;;;;;;4983737;28;20098;-86
2022/01/20 08:32:17;;;;;;;21.02;3.55;;;1.60;99.90;;;;;;4984269;28;20053;-86
2022/01/20 08:34:42;;;;;;;21.98;3.72;;;1.50;99.90;;;;;;4983103;28;20081;-86
2022/01/20 08:37:08;;;;;;;14.50;2.58;;;1.40;99.90;;;;;;4982885;28;20055;-86
2022/01/20 08:42:02;;;;;;;15.18;2.97;;;1.60;99.90;;;;;;4983470;28;20359;-86
2022/01/20 08:44:28;;;;;;;28.13;4.50;;;1.80;99.90;;;;;;4982459;28;20738;-85
2022/01/20 08:46:54;;;;;;;25.95;4.85;;;1.70;99.90;;;;;;4987046;28;20133;-85
2022/01/20 08:49:20;;;;;;;25.50;4.55;;;1.80;99.90;;;;;;4986511;28;20054;-85
2022/01/20 08:51:46;;;;;;;14.95;3.40;;;2.20;99.90;;;;;;4984721;28;20493;-87
2022/01/20 08:54:13;;;;;;;6.20;1.45;;;2.20;99.90;;;;;;4986194;28;20050;-86
2022/01/20 08:56:40;;;;;;;15.07;3.08;;;2.50;99.90;;;;;;4985975;28;20116;-86
2022/01/20 08:59:06;;;;;;;9.15;1.67;;;3.90;99.90;;;;;;4986990;28;20054;-85
2022/01/20 09:01:37;;;;;;;16.00;2.42;;;3.00;99.90;;;;;;4996862;28;20053;-85
2022/01/20 09:04:05;;;;;;;10.52;2.08;;;3.40;99.90;;;;;;5005622;28;20515;-85
2022/01/20 09:06:31;;;;;;;8.90;1.63;;;3.20;99.90;;;;;;5004901;28;20052;-85
2022/01/20 09:08:57;;;;;;;8.20;1.70;;;2.60;99.90;;;;;;5005203;28;20049;-86
2022/01/20 09:11:35;;;;;;;5.20;1.20;;;2.10;99.90;;;;;;5005972;28;20049;-85
2022/01/20 09:16:50;;;;;;;10.70;1.42;;;1.60;99.90;;;;;;4978921;28;20460;-86
2022/01/20 09:19:16;;;;;;;8.00;1.83;;;1.50;99.90;;;;;;5006177;28;20111;-86
2022/01/20 09:21:44;;;;;;;10.85;1.13;;;1.50;99.90;;;;;;5005813;28;20065;-86
2022/01/20 09:24:09;;;;;;;8.68;1.42;;;1.60;99.90;;;;;;5006402;28;20329;-86
2022/01/20 09:26:35;;;;;;;7.72;1.70;;;1.70;99.90;;;;;;5004129;28;20637;-86
2022/01/20 09:29:01;;;;;;;12.20;1.67;;;2.00;99.90;;;;;;5003367;28;20058;-86
2022/01/20 09:31:27;;;;;;;11.77;2.10;;;2.30;99.90;;;;;;5004033;28;20531;-85
2022/01/20 09:33:54;;;;;;;13.23;1.52;;;2.70;99.90;;;;;;5005563;28;20657;-86
2022/01/20 09:36:22;;;;;;;6.85;1.10;;;2.60;99.90;;;;;;4988419;28;20058;-86
2022/01/20 09:38:48;;;;;;;7.88;1.50;;;2.40;99.90;;;;;;4983358;28;20046;-85
2022/01/20 09:41:14;;;;;;;12.10;2.20;;;2.20;99.90;;;;;;4985025;28;20046;-85
2022/01/20 09:43:41;;;;;;;7.72;1.35;;;2.00;99.90;;;;;;4985804;28;20129;-86
2022/01/20 09:46:06;;;;;;;8.65;1.25;;;3.00;99.90;;;;;;4986621;28;20462;-85
2022/01/20 09:48:32;;;;;;;12.73;2.40;;;1.80;99.90;;;;;;4998213;28;20363;-86
2022/01/20 09:51:00;;;;;;;7.30;1.55;;;1.80;99.90;;;;;;5006232;28;20054;-85
2022/01/20 09:53:29;;;;;;;13.07;2.17;;;1.80;99.90;;;;;;5004691;28;20508;-85
2022/01/20 09:55:55;;;;;;;9.90;3.17;;;2.00;99.90;;;;;;5003767;28;20053;-85
2022/01/20 09:58:22;;;;;;;12.55;1.77;;;2.00;99.90;;;;;;4998539;28;20054;-85
2022/01/20 10:00:47;;;;;;;14.73;3.58;;;2.00;99.90;;;;;;4985533;28;20730;-85
2022/01/20 10:03:16;;;;;;;18.02;3.30;;;2.70;99.90;;;;;;4985233;28;20157;-85
2022/01/20 10:05:47;;;;;;;15.32;1.92;;;2.60;99.90;;;;;;4984200;28;20524;-86
2022/01/20 10:08:24;;;;;;;12.13;2.92;;;3.00;99.90;;;;;;4986811;28;20091;-85
2022/01/20 10:10:53;;;;;;;7.03;1.67;;;3.20;99.90;;;;;;4984631;28;20401;-85
2022/01/20 10:13:22;;;;;;;18.23;3.40;;;3.20;99.90;;;;;;4985873;28;20048;-85
2022/01/20 10:16:08;;;;;;;9.65;2.55;;;3.20;99.90;;;;;;4984203;28;20069;-85
2022/01/20 10:18:53;;;;;;;12.95;2.42;;;3.40;99.90;;;;;;4983509;28;20046;-85
2022/01/20 10:21:27;;;;;;;12.82;3.00;;;3.50;99.90;;;;;;4988575;28;20412;-85
2022/01/20 10:23:52;;;;;;;20.67;4.22;;;3.90;99.90;;;;;;5003659;28;20050;-85
2022/01/20 10:26:21;;;;;;;19.67;2.63;;;4.10;99.90;;;;;;5003217;28;20061;-85
2022/01/20 10:28:52;;;;;;;12.80;2.88;;;4.30;99.90;;;;;;5004534;28;20397;-85
2022/01/20 10:31:29;;;;;;;17.10;3.35;;;4.30;99.90;;;;;;5005451;28;20050;-85
2022/01/20 10:33:55;;;;;;;9.93;1.88;;;4.30;99.90;;;;;;5004521;28;20061;-85
2022/01/20 10:36:22;;;;;;;9.07;2.40;;;4.30;99.90;;;;;;5006650;28;20352;-85
2022/01/20 10:38:56;;;;;;;10.32;1.98;;;4.20;99.90;;;;;;5006473;28;20046;-85
2022/01/20 10:41:31;;;;;;;13.52;2.38;;;4.20;99.90;;;;;;5002111;28;20432;-85
2022/01/20 10:44:14;;;;;;;12.23;2.00;;;4.10;99.90;;;;;;5003459;28;20202;-86
2022/01/20 10:46:52;;;;;;;11.93;1.83;;;3.90;99.90;;;;;;4999175;28;20116;-85
2022/01/20 10:49:20;;;;;;;18.92;4.00;;;4.10;99.90;;;;;;4995144;28;20052;-85
2022/01/20 10:52:01;;;;;;;11.20;2.20;;;4.20;99.90;;;;;;5002066;28;20053;-85
2022/01/20 10:54:42;;;;;;;15.70;2.58;;;4.20;99.90;;;;;;5001588;28;20057;-85
2022/01/20 10:57:10;;;;;;;9.88;2.17;;;4.20;99.90;;;;;;5002176;28;20053;-85
2022/01/20 10:59:48;;;;;;;11.23;2.38;;;4.20;99.90;;;;;;4988399;28;20058;-85
2022/01/20 11:02:21;;;;;;;12.20;2.20;;;4.30;99.90;;;;;;4981725;28;20133;-85
2022/01/20 11:04:47;;;;;;;13.23;2.88;;;4.50;99.90;;;;;;4982397;28;20046;-85
2022/01/20 11:07:13;;;;;;;13.93;3.08;;;4.60;99.90;;;;;;4983260;28;20042;-86
2022/01/20 11:09:43;;;;;;;13.40;3.00;;;4.60;99.90;;;;;;4965018;28;20057;-86
2022/01/20 11:12:14;;;;;;;9.32;2.22;;;4.60;99.90;;;;;;4985672;28;20068;-86
2022/01/20 11:14:40;;;;;;;10.73;2.58;;;4.50;99.90;;;;;;4984128;28;20056;-85
2022/01/20 11:17:06;;;;;;;9.65;1.83;;;4.40;99.90;;;;;;4995367;28;20060;-85
2022/01/20 11:19:37;;;;;;;14.20;2.35;;;4.40;99.90;;;;;;5005971;28;20412;-86
2022/01/20 11:22:08;;;;;;;16.85;3.05;;;4.60;99.90;;;;;;5006116;28;20064;-85
2022/01/20 11:24:36;;;;;;;8.23;2.55;;;4.80;99.90;;;;;;5007006;28;20497;-85
2022/01/20 11:27:02;;;;;;;9.90;1.92;;;4.80;99.90;;;;;;5007516;28;20046;-85
2022/01/20 11:30:01;;;;;;;10.57;2.42;;;4.80;99.90;;;;;;5007139;28;20053;-86
2022/01/20 11:32:27;;;;;;;14.68;3.17;;;4.70;99.90;;;;;;4994953;28;20136;-85
2022/01/20 11:35:05;;;;;;;18.13;3.00;;;4.70;99.90;;;;;;5007045;28;20064;-85
2022/01/20 11:37:40;;;;;;;15.18;2.63;;;4.60;99.90;;;;;;5008222;28;20045;-85
2022/01/20 11:40:21;;;;;;;20.40;2.88;;;4.30;99.90;;;;;;5007204;28;20522;-86
2022/01/20 11:43:09;;;;;;;15.98;3.45;;;4.20;99.90;;;;;;5005402;28;20282;-85
2022/01/20 11:45:39;;;;;;;10.60;2.67;;;4.10;99.90;;;;;;5004607;28;20052;-85
2022/01/20 11:48:16;;;;;;;23.35;4.82;;;4.30;99.90;;;;;;5004326;28;20057;-85
2022/01/20 11:50:43;;;;;;;18.27;3.00;;;4.40;99.90;;;;;;5005806;28;20133;-85
2022/01/20 11:53:18;;;;;;;17.58;2.90;;;4.50;99.90;;;;;;5005182;28;20046;-84
2022/01/20 11:55:53;;;;;;;10.95;2.45;;;4.50;99.90;;;;;;5004913;28;20046;-83
2022/01/20 11:58:22;;;;;;;6.40;2.00;;;4.00;99.90;;;;;;4997529;28;20572;-84
2022/01/20 12:01:06;;;;;;;10.02;2.00;;;3.60;99.90;;;;;;4984883;28;20042;-83
2022/01/20 12:03:33;;;;;;;11.90;2.28;;;3.10;99.90;;;;;;4985868;28;20535;-84
2022/01/20 12:06:07;;;;;;;16.10;3.15;;;2.80;99.90;;;;;;4985026;28;20380;-84
2022/01/20 12:08:33;;;;;;;11.80;2.38;;;2.70;99.90;;;;;;4983468;28;20580;-83
2022/01/20 12:11:09;;;;;;;13.00;2.22;;;2.60;99.90;;;;;;4983660;28;20161;-84
2022/01/20 12:13:49;;;;;;;18.10;2.08;;;2.80;99.90;;;;;;4983192;28;20142;-84
2022/01/20 12:16:23;;;;;;;16.13;3.33;;;3.00;99.90;;;;;;4985372;28;20735;-84
2022/01/20 12:18:54;;;;;;;15.00;3.33;;;3.20;99.90;;;;;;4984283;28;20058;-84
2022/01/20 12:21:21;;;;;;;13.60;2.78;;;3.50;99.90;;;;;;5001315;28;20144;-84
2022/01/20 12:23:48;;;;;;;19.42;3.15;;;3.50;99.90;;;;;;5010364;28;20050;-85
2022/01/20 12:26:14;;;;;;;9.70;2.72;;;3.30;99.90;;;;;;5010155;28;20073;-84
2022/01/20 12:28:40;;;;;;;11.85;2.42;;;3.30;99.90;;;;;;5010389;28;20063;-84
2022/01/20 12:31:08;;;;;;;19.33;4.38;;;3.40;99.90;;;;;;5010640;28;20077;-84
2022/01/20 12:33:40;;;;;;;16.80;3.17;;;4.80;99.90;;;;;;5008708;28;20101;-84
2022/01/20 12:36:12;;;;;;;14.10;2.67;;;3.60;99.90;;;;;;5010496;28;20415;-85
2022/01/20 12:38:39;;;;;;;9.32;2.28;;;3.70;99.90;;;;;;5009509;28;20041;-85
2022/01/20 12:41:19;;;;;;;21.92;4.10;;;3.90;99.90;;;;;;5009106;28;20298;-85
2022/01/20 12:44:09;;;;;;;15.80;2.10;;;4.00;99.90;;;;;;5008737;28;20046;-84
2022/01/20 12:46:39;;;;;;;18.17;2.80;;;4.00;99.90;;;;;;4990984;28;20050;-85
2022/01/20 12:49:09;;;;;;;11.82;2.60;;;4.00;99.90;;;;;;5008279;28;20539;-85
2022/01/20 12:51:50;;;;;;;16.17;3.28;;;4.10;99.90;;;;;;5008443;28;20077;-85
2022/01/20 12:54:21;;;;;;;18.70;2.92;;;4.10;99.90;;;;;;5007915;28;20061;-85
2022/01/20 12:56:49;;;;;;;14.90;3.50;;;4.10;99.90;;;;;;5006380;28;20124;-85
2022/01/20 12:59:26;;;;;;;14.13;2.45;;;4.20;99.90;;;;;;5008497;28;20124;-85
2022/01/20 13:01:52;;;;;;;;;;;4.40;99.90;;;;;;5007753;28;20050;-86
2022/01/20 13:04:21;;;;;;;19.15;3.90;;;4.60;99.90;;;;;;5008937;28;19975;-85
2022/01/20 13:06:59;;;;;;;14.75;2.30;;;4.70;99.90;;;;;;5009691;28;20081;-84
2022/01/20 13:09:37;;;;;;;15.50;2.42;;;4.70;99.90;;;;;;4993360;28;20504;-85
2022/01/20 13:12:03;;;;;;;17.02;4.25;;;4.80;99.90;;;;;;5011159;28;20041;-86
2022/01/20 13:14:55;;;;;;;20.73;3.70;;;4.90;99.90;;;;;;5009174;28;20054;-85
2022/01/20 13:17:26;;;;;;;12.35;3.50;;;5.00;99.90;;;;;;4990036;28;20061;-86
2022/01/20 13:19:55;;;;;;;14.88;2.60;;;5.20;99.90;;;;;;5007058;28;20077;-85
2022/01/20 13:22:39;;;;;;;24.80;4.75;;;5.40;99.90;;;;;;5006509;28;20568;-85
2022/01/20 13:25:12;;;;;;;7.07;2.38;;;5.10;99.90;;;;;;5008202;28;20056;-86
2022/01/20 13:27:53;;;;;;;15.95;2.22;;;3.90;99.90;;;;;;5008139;28;20085;-86
2022/01/20 13:30:36;;;;;;;7.82;1.60;;;3.30;99.90;;;;;;5006552;28;20042;-86
2022/01/20 13:33:04;;;;;;;14.18;1.67;;;2.90;99.90;;;;;;5007548;28;20057;-86
2022/01/20 13:35:40;;;;;;;5.90;1.70;;;2.80;99.90;;;;;;5013997;28;20431;-85
2022/01/20 13:38:08;;;;;;;7.65;1.50;;;2.70;99.90;;;;;;5010890;28;20825;-85
2022/01/20 13:40:34;;;;;;;17.30;3.50;;;2.80;99.90;;;;;;5011457;28;20054;-84
2022/01/20 13:46:07;;;;;;;5.93;1.45;;;3.10;99.90;;;;;;5016535;28;20060;-86
2022/01/20 13:48:33;;;;;;;4.95;1.63;;;3.40;99.90;;;;;;5010494;28;20503;-85
2022/01/20 13:51:03;;;;;;;8.13;1.70;;;3.50;99.90;;;;;;5009964;28;20291;-85
2022/01/20 13:53:30;;;;;;;8.85;2.33;;;3.40;99.90;;;;;;5010517;28;20054;-85
2022/01/20 13:56:00;;;;;;;14.20;2.22;;;3.30;99.90;;;;;;5011141;28;20060;-87
2022/01/20 13:58:29;;;;;;;12.27;2.55;;;3.70;99.90;;;;;;5011005;28;20128;-86
2022/01/20 14:00:58;;;;;;;11.45;2.17;;;2.80;99.90;;;;;;5011626;28;20085;-86
2022/01/20 14:03:24;;;;;;;7.95;2.03;;;3.00;99.90;;;;;;5008403;28;20073;-85
2022/01/20 14:05:54;;;;;;;12.13;2.47;;;3.00;99.90;;;;;;5007359;28;20045;-85
2022/01/20 14:08:21;;;;;;;8.20;1.98;;;3.00;99.90;;;;;;5006255;28;20046;-85
2022/01/20 14:10:46;;;;;;;11.63;2.92;;;3.00;99.90;;;;;;5009008;28;20133;-85